sensor_id;sensor_type;location;lat;lon;timestamp;pressure;altitude;pressure_sealevel;temperature;humidity
8366;BME280;4220;42.502;24.188;2023-08-30T00:01:41;94318.03;;;20.90;100.00
8366;BME280;4220;42.502;24.188;2023-08-30T00:04:08;94322.00;;;20.92;100.00
8366;BME280;4220;42.502;24.188;2023-08-30T00:06:36;94311.22;;;20.92;100.00
8366;BME280;4220;42.502;24.188;2023-08-30T00:09:03;94310.19;;;21.02;100.00
8366;BME280;4220;42.502;24.188;2023-08-30T00:11:30;94311.50;;;21.04;100.00
8366;BME280;4220;42.502;24.188;2023-08-30T00:14:02;94302.03;;;21.07;100.00
8366;BME280;4220;42.502;24.188;2023-08-30T00:16:30;94309.06;;;21.16;100.00
8366;BME280;4220;42.502;24.188;2023-08-30T00:18:57;94307.72;;;21.05;100.00
8366;BME280;4220;42.502;24.188;2023-08-30T00:21:24;94191.19;;;20.14;100.00
8366;BME280;4220;42.502;24.188;2023-08-30T00:23:53;94290.88;;;20.64;100.00
8366;BME280;4220;42.502;24.188;2023-08-30T00:26:20;94270.34;;;20.41;100.00
8366;BME280;4220;42.502;24.188;2023-08-30T00:28:47;94303.44;;;20.55;100.00
8366;BME280;4220;42.502;24.188;2023-08-30T00:31:14;94302.84;;;20.44;100.00
8366;BME280;4220;42.502;24.188;2023-08-30T00:33:41;94306.66;;;20.43;100.00
8366;BME280;4220;42.502;24.188;2023-08-30T00:36:07;94305.34;;;20.41;100.00
8366;BME280;4220;42.502;24.188;2023-08-30T00:38:34;94306.66;;;20.43;100.00
8366;BME280;4220;42.502;24.188;2023-08-30T00:41:02;94314.13;;;20.46;100.00
8366;BME280;4220;42.502;24.188;2023-08-30T00:43:29;94305.84;;;20.43;100.00
8366;BME280;4220;42.502;24.188;2023-08-30T00:45:56;94309.72;;;20.50;100.00
8366;BME280;4220;42.502;24.188;2023-08-30T00:48:23;94316.50;;;20.48;100.00
8366;BME280;4220;42.502;24.188;2023-08-30T00:50:50;94322.00;;;20.56;100.00
8366;BME280;4220;42.502;24.188;2023-08-30T00:53:18;94292.59;;;20.46;100.00
8366;BME280;4220;42.502;24.188;2023-08-30T00:55:45;94325.75;;;20.69;100.00
8366;BME280;4220;42.502;24.188;2023-08-30T00:58:13;94327.84;;;20.72;100.00
8366;BME280;4220;42.502;24.188;2023-08-30T01:00:40;94313.00;;;20.61;100.00
8366;BME280;4220;42.502;24.188;2023-08-30T01:03:07;94322.41;;;20.50;100.00
8366;BME280;4220;42.502;24.188;2023-08-30T01:05:34;94329.19;;;20.47;100.00
8366;BME280;4220;42.502;24.188;2023-08-30T01:08:01;94312.03;;;20.02;100.00
8366;BME280;4220;42.502;24.188;2023-08-30T01:10:44;94316.78;;;19.78;100.00
8366;BME280;4220;42.502;24.188;2023-08-30T01:13:18;94325.94;;;19.77;100.00
8366;BME280;4220;42.502;24.188;2023-08-30T01:15:47;94325.66;;;19.46;100.00
8366;BME280;4220;42.502;24.188;2023-08-30T01:18:17;94318.72;;;19.45;100.00
8366;BME280;4220;42.502;24.188;2023-08-30T01:20:45;94334.28;;;19.62;100.00
8366;BME280;4220;42.502;24.188;2023-08-30T01:23:19;94339.50;;;19.72;100.00
8366;BME280;4220;42.502;24.188;2023-08-30T01:25:57;94335.50;;;19.83;100.00
8366;BME280;4220;42.502;24.188;2023-08-30T01:28:27;94347.63;;;19.99;100.00
8366;BME280;4220;42.502;24.188;2023-08-30T01:30:57;94342.22;;;19.99;100.00
8366;BME280;4220;42.502;24.188;2023-08-30T01:33:24;94341.50;;;19.80;100.00
8366;BME280;4220;42.502;24.188;2023-08-30T01:35:54;94348.72;;;19.52;100.00
8366;BME280;4220;42.502;24.188;2023-08-30T01:38:23;94349.13;;;19.60;100.00
8366;BME280;4220;42.502;24.188;2023-08-30T01:40:50;94351.41;;;19.66;100.00
8366;BME280;4220;42.502;24.188;2023-08-30T01:43:18;94254.88;;;19.19;100.00
8366;BME280;4220;42.502;24.188;2023-08-30T01:45:48;94332.31;;;19.68;100.00
8366;BME280;4220;42.502;24.188;2023-08-30T01:48:16;94314.78;;;19.70;100.00
8366;BME280;4220;42.502;24.188;2023-08-30T01:50:44;94352.28;;;20.07;100.00
8366;BME280;4220;42.502;24.188;2023-08-30T01:53:12;94351.69;;;20.10;100.00
8366;BME280;4220;42.502;24.188;2023-08-30T01:55:39;94356.50;;;20.13;100.00
8366;BME280;4220;42.502;24.188;2023-08-30T01:58:07;94349.13;;;20.19;100.00
8366;BME280;4220;42.502;24.188;2023-08-30T02:00:35;94341.72;;;20.11;100.00
8366;BME280;4220;42.502;24.188;2023-08-30T02:03:08;94355.53;;;20.23;100.00
8366;BME280;4220;42.502;24.188;2023-08-30T02:05:37;94320.59;;;20.04;100.00
8366;BME280;4220;42.502;24.188;2023-08-30T02:08:09;94352.16;;;20.31;100.00
8366;BME280;4220;42.502;24.188;2023-08-30T02:10:41;94288.69;;;19.84;100.00
8366;BME280;4220;42.502;24.188;2023-08-30T02:13:10;94348.63;;;20.17;100.00
8366;BME280;4220;42.502;24.188;2023-08-30T02:15:41;94338.81;;;20.07;100.00
8366;BME280;4220;42.502;24.188;2023-08-30T02:18:09;94327.56;;;20.05;100.00
8366;BME280;4220;42.502;24.188;2023-08-30T02:20:37;94330.38;;;20.14;100.00
8366;BME280;4220;42.502;24.188;2023-08-30T02:23:04;94336.84;;;20.13;100.00
8366;BME280;4220;42.502;24.188;2023-08-30T02:25:30;94332.75;;;20.02;100.00
8366;BME280;4220;42.502;24.188;2023-08-30T02:27:57;94323.66;;;19.84;100.00
8366;BME280;4220;42.502;24.188;2023-08-30T02:30:24;94289.72;;;19.42;100.00
8366;BME280;4220;42.502;24.188;2023-08-30T02:32:51;94318.63;;;19.50;100.00
8366;BME280;4220;42.502;24.188;2023-08-30T02:35:19;94318.72;;;19.45;100.00
8366;BME280;4220;42.502;24.188;2023-08-30T02:37:46;94315.13;;;19.50;100.00
8366;BME280;4220;42.502;24.188;2023-08-30T02:40:13;94322.06;;;19.37;100.00
8366;BME280;4220;42.502;24.188;2023-08-30T02:42:40;94327.66;;;19.41;100.00
8366;BME280;4220;42.502;24.188;2023-08-30T02:45:08;94325.88;;;19.31;100.00
8366;BME280;4220;42.502;24.188;2023-08-30T02:47:35;94316.53;;;18.97;100.00
8366;BME280;4220;42.502;24.188;2023-08-30T02:50:02;94327.63;;;19.09;100.00
8366;BME280;4220;42.502;24.188;2023-08-30T02:52:30;94322.09;;;19.00;100.00
8366;BME280;4220;42.502;24.188;2023-08-30T02:54:57;94325.00;;;18.85;100.00
8366;BME280;4220;42.502;24.188;2023-08-30T02:57:24;94321.34;;;18.94;100.00
8366;BME280;4220;42.502;24.188;2023-08-30T02:59:51;94333.09;;;19.17;100.00
8366;BME280;4220;42.502;24.188;2023-08-30T03:02:18;94334.75;;;19.32;100.00
8366;BME280;4220;42.502;24.188;2023-08-30T03:04:45;94333.09;;;19.36;100.00
8366;BME280;4220;42.502;24.188;2023-08-30T03:07:11;94348.00;;;19.47;100.00
8366;BME280;4220;42.502;24.188;2023-08-30T03:09:40;94342.44;;;19.57;100.00
8366;BME280;4220;42.502;24.188;2023-08-30T03:12:07;94308.72;;;19.46;100.00
8366;BME280;4220;42.502;24.188;2023-08-30T03:14:34;94333.09;;;19.68;100.00
8366;BME280;4220;42.502;24.188;2023-08-30T03:17:00;94349.66;;;19.75;100.00
8366;BME280;4220;42.502;24.188;2023-08-30T03:19:27;94354.19;;;19.61;100.00
8366;BME280;4220;42.502;24.188;2023-08-30T03:21:54;94345.34;;;19.61;100.00
8366;BME280;4220;42.502;24.188;2023-08-30T03:24:21;94341.28;;;19.63;100.00
8366;BME280;4220;42.502;24.188;2023-08-30T03:26:49;94333.88;;;19.55;100.00
8366;BME280;4220;42.502;24.188;2023-08-30T03:29:18;94357.59;;;19.53;100.00
8366;BME280;4220;42.502;24.188;2023-08-30T03:31:45;94332.66;;;19.29;100.00
8366;BME280;4220;42.502;24.188;2023-08-30T03:34:12;94359.75;;;19.51;100.00
8366;BME280;4220;42.502;24.188;2023-08-30T03:36:40;94352.81;;;19.64;100.00
8366;BME280;4220;42.502;24.188;2023-08-30T03:39:09;94355.41;;;19.69;100.00
8366;BME280;4220;42.502;24.188;2023-08-30T03:41:37;94346.34;;;19.65;100.00
8366;BME280;4220;42.502;24.188;2023-08-30T03:44:06;94361.34;;;19.84;100.00
8366;BME280;4220;42.502;24.188;2023-08-30T03:46:32;94362.81;;;19.90;100.00
8366;BME280;4220;42.502;24.188;2023-08-30T03:48:59;94357.75;;;19.89;100.00
8366;BME280;4220;42.502;24.188;2023-08-30T03:51:26;94360.56;;;19.97;100.00
8366;BME280;4220;42.502;24.188;2023-08-30T03:53:53;94357.06;;;19.97;100.00
8366;BME280;4220;42.502;24.188;2023-08-30T03:56:21;94361.06;;;19.99;100.00
8366;BME280;4220;42.502;24.188;2023-08-30T03:58:48;94356.88;;;19.93;100.00
8366;BME280;4220;42.502;24.188;2023-08-30T04:01:16;94362.75;;;19.95;100.00
8366;BME280;4220;42.502;24.188;2023-08-30T04:03:43;94361.75;;;19.91;100.00
8366;BME280;4220;42.502;24.188;2023-08-30T04:06:10;94357.53;;;19.85;100.00
8366;BME280;4220;42.502;24.188;2023-08-30T04:08:37;94356.84;;;19.80;100.00
8366;BME280;4220;42.502;24.188;2023-08-30T04:11:03;94352.81;;;19.64;100.00
8366;BME280;4220;42.502;24.188;2023-08-30T04:13:30;94354.38;;;19.51;100.00
8366;BME280;4220;42.502;24.188;2023-08-30T04:15:57;94361.84;;;19.54;100.00
8366;BME280;4220;42.502;24.188;2023-08-30T04:18:26;94364.50;;;19.22;100.00
8366;BME280;4220;42.502;24.188;2023-08-30T04:20:53;94347.81;;;19.06;100.00
8366;BME280;4220;42.502;24.188;2023-08-30T04:23:20;94341.44;;;18.65;100.00
8366;BME280;4220;42.502;24.188;2023-08-30T04:25:46;94355.78;;;18.74;100.00
8366;BME280;4220;42.502;24.188;2023-08-30T04:28:13;94360.94;;;18.70;100.00
8366;BME280;4220;42.502;24.188;2023-08-30T04:30:40;94362.53;;;18.90;100.00
8366;BME280;4220;42.502;24.188;2023-08-30T04:33:07;94369.00;;;19.08;100.00
8366;BME280;4220;42.502;24.188;2023-08-30T04:35:35;94375.84;;;19.19;100.00
8366;BME280;4220;42.502;24.188;2023-08-30T04:38:02;94358.19;;;18.94;100.00
8366;BME280;4220;42.502;24.188;2023-08-30T04:40:29;94373.97;;;19.01;100.00
8366;BME280;4220;42.502;24.188;2023-08-30T04:42:57;94374.53;;;19.16;100.00
8366;BME280;4220;42.502;24.188;2023-08-30T04:45:24;94373.09;;;19.24;100.00
8366;BME280;4220;42.502;24.188;2023-08-30T04:47:51;94376.19;;;19.31;100.00
8366;BME280;4220;42.502;24.188;2023-08-30T04:50:18;94386.06;;;19.54;100.00
8366;BME280;4220;42.502;24.188;2023-08-30T04:52:46;94386.81;;;19.73;100.00
8366;BME280;4220;42.502;24.188;2023-08-30T04:55:13;94394.19;;;20.00;100.00
8366;BME280;4220;42.502;24.188;2023-08-30T04:57:40;94397.47;;;20.10;100.00
8366;BME280;4220;42.502;24.188;2023-08-30T05:00:11;94362.47;;;20.10;100.00
8366;BME280;4220;42.502;24.188;2023-08-30T05:02:38;94400.13;;;20.43;100.00
8366;BME280;4220;42.502;24.188;2023-08-30T05:05:06;94391.16;;;20.61;100.00
8366;BME280;4220;42.502;24.188;2023-08-30T05:07:33;94374.94;;;20.74;100.00
8366;BME280;4220;42.502;24.188;2023-08-30T05:10:01;94389.34;;;20.83;100.00
8366;BME280;4220;42.502;24.188;2023-08-30T05:12:28;94397.00;;;20.90;100.00
8366;BME280;4220;42.502;24.188;2023-08-30T05:14:55;94400.81;;;20.62;100.00
8366;BME280;4220;42.502;24.188;2023-08-30T05:17:22;94400.81;;;20.48;100.00
8366;BME280;4220;42.502;24.188;2023-08-30T05:19:49;94401.00;;;20.52;100.00
8366;BME280;4220;42.502;24.188;2023-08-30T05:22:16;94401.81;;;20.52;100.00
8366;BME280;4220;42.502;24.188;2023-08-30T05:24:43;94406.31;;;20.43;100.00
8366;BME280;4220;42.502;24.188;2023-08-30T05:27:11;94414.97;;;20.27;100.00
8366;BME280;4220;42.502;24.188;2023-08-30T05:29:40;94408.69;;;20.31;100.00
8366;BME280;4220;42.502;24.188;2023-08-30T05:32:06;94415.69;;;20.46;100.00
8366;BME280;4220;42.502;24.188;2023-08-30T05:34:33;94409.00;;;20.57;100.00
8366;BME280;4220;42.502;24.188;2023-08-30T05:37:00;94424.06;;;20.85;100.00
8366;BME280;4220;42.502;24.188;2023-08-30T05:39:28;94394.13;;;20.73;100.00
8366;BME280;4220;42.502;24.188;2023-08-30T05:41:54;94429.94;;;21.14;100.00
8366;BME280;4220;42.502;24.188;2023-08-30T05:44:23;94422.72;;;21.23;100.00
8366;BME280;4220;42.502;24.188;2023-08-30T05:46:50;94423.97;;;21.39;100.00
8366;BME280;4220;42.502;24.188;2023-08-30T05:49:16;94413.00;;;21.58;100.00
8366;BME280;4220;42.502;24.188;2023-08-30T05:51:43;94423.13;;;21.75;100.00
8366;BME280;4220;42.502;24.188;2023-08-30T05:54:10;94430.59;;;21.91;100.00
8366;BME280;4220;42.502;24.188;2023-08-30T05:56:37;94443.09;;;22.09;100.00
8366;BME280;4220;42.502;24.188;2023-08-30T05:59:04;94451.84;;;22.37;100.00
8366;BME280;4220;42.502;24.188;2023-08-30T06:01:32;94445.66;;;22.67;100.00
8366;BME280;4220;42.502;24.188;2023-08-30T06:04:01;94442.06;;;22.98;100.00
8366;BME280;4220;42.502;24.188;2023-08-30T06:06:30;94443.09;;;23.19;100.00
8366;BME280;4220;42.502;24.188;2023-08-30T06:08:58;94440.78;;;23.43;100.00
8366;BME280;4220;42.502;24.188;2023-08-30T06:11:24;94426.59;;;23.55;100.00
8366;BME280;4220;42.502;24.188;2023-08-30T06:13:51;94435.38;;;23.77;100.00
8366;BME280;4220;42.502;24.188;2023-08-30T06:16:18;94428.50;;;23.88;100.00
8366;BME280;4220;42.502;24.188;2023-08-30T06:18:46;94438.41;;;24.10;100.00
8366;BME280;4220;42.502;24.188;2023-08-30T06:21:13;94443.31;;;24.17;100.00
8366;BME280;4220;42.502;24.188;2023-08-30T06:23:40;94429.59;;;24.22;100.00
8366;BME280;4220;42.502;24.188;2023-08-30T06:26:07;94424.47;;;24.29;100.00
8366;BME280;4220;42.502;24.188;2023-08-30T06:28:34;94430.53;;;24.34;100.00
8366;BME280;4220;42.502;24.188;2023-08-30T06:31:00;94438.16;;;24.41;100.00
8366;BME280;4220;42.502;24.188;2023-08-30T06:33:27;94446.63;;;24.39;100.00
8366;BME280;4220;42.502;24.188;2023-08-30T06:35:56;94449.63;;;24.38;100.00
8366;BME280;4220;42.502;24.188;2023-08-30T06:38:22;94441.63;;;24.50;100.00
8366;BME280;4220;42.502;24.188;2023-08-30T06:40:49;94414.56;;;24.41;100.00
8366;BME280;4220;42.502;24.188;2023-08-30T06:43:16;94454.81;;;24.68;100.00
8366;BME280;4220;42.502;24.188;2023-08-30T06:45:43;94455.63;;;24.69;100.00
8366;BME280;4220;42.502;24.188;2023-08-30T06:48:11;94454.00;;;24.77;100.00
8366;BME280;4220;42.502;24.188;2023-08-30T06:50:38;94451.25;;;24.94;100.00
8366;BME280;4220;42.502;24.188;2023-08-30T06:53:06;94456.41;;;25.07;100.00
8366;BME280;4220;42.502;24.188;2023-08-30T06:55:34;94452.88;;;25.15;100.00
8366;BME280;4220;42.502;24.188;2023-08-30T06:58:02;94447.72;;;25.22;100.00
8366;BME280;4220;42.502;24.188;2023-08-30T07:00:29;94453.81;;;25.19;100.00
8366;BME280;4220;42.502;24.188;2023-08-30T07:02:56;94450.63;;;25.17;100.00
8366;BME280;4220;42.502;24.188;2023-08-30T07:05:23;94465.19;;;25.33;100.00
8366;BME280;4220;42.502;24.188;2023-08-30T07:07:50;94465.31;;;25.46;100.00
8366;BME280;4220;42.502;24.188;2023-08-30T07:10:18;94464.81;;;25.52;100.00
8366;BME280;4220;42.502;24.188;2023-08-30T07:12:45;94465.19;;;25.63;100.00
8366;BME280;4220;42.502;24.188;2023-08-30T07:15:14;94380.41;;;25.16;100.00
8366;BME280;4220;42.502;24.188;2023-08-30T07:17:42;94452.97;;;25.57;100.00
8366;BME280;4220;42.502;24.188;2023-08-30T07:20:10;94450.97;;;25.66;99.61
8366;BME280;4220;42.502;24.188;2023-08-30T07:22:36;94450.47;;;25.72;97.94
8366;BME280;4220;42.502;24.188;2023-08-30T07:25:04;94443.75;;;25.70;95.73
8366;BME280;4220;42.502;24.188;2023-08-30T07:27:33;94420.09;;;25.70;96.02
8366;BME280;4220;42.502;24.188;2023-08-30T07:30:00;94445.66;;;25.49;96.08
8366;BME280;4220;42.502;24.188;2023-08-30T07:32:27;94454.84;;;25.36;95.30
8366;BME280;4220;42.502;24.188;2023-08-30T07:34:54;94455.25;;;25.46;94.21
8366;BME280;4220;42.502;24.188;2023-08-30T07:37:22;94459.22;;;25.19;97.08
8366;BME280;4220;42.502;24.188;2023-08-30T07:39:51;94466.47;;;25.45;95.90
8366;BME280;4220;42.502;24.188;2023-08-30T07:42:17;94462.81;;;25.61;93.76
8366;BME280;4220;42.502;24.188;2023-08-30T07:44:46;94464.53;;;25.66;92.73
8366;BME280;4220;42.502;24.188;2023-08-30T07:47:12;94459.69;;;25.51;91.72
8366;BME280;4220;42.502;24.188;2023-08-30T07:49:40;94462.56;;;25.54;93.22
8366;BME280;4220;42.502;24.188;2023-08-30T07:52:07;94346.22;;;24.94;92.63
8366;BME280;4220;42.502;24.188;2023-08-30T07:54:36;94448.84;;;25.71;91.41
8366;BME280;4220;42.502;24.188;2023-08-30T07:57:04;94454.88;;;25.77;92.10
8366;BME280;4220;42.502;24.188;2023-08-30T07:59:32;94448.47;;;25.81;91.47
8366;BME280;4220;42.502;24.188;2023-08-30T08:02:01;94468.69;;;26.05;89.86
8366;BME280;4220;42.502;24.188;2023-08-30T08:04:28;94453.28;;;25.76;91.12
8366;BME280;4220;42.502;24.188;2023-08-30T08:06:54;94457.06;;;25.63;91.66
8366;BME280;4220;42.502;24.188;2023-08-30T08:09:21;94453.06;;;25.60;91.76
8366;BME280;4220;42.502;24.188;2023-08-30T08:11:48;94458.13;;;25.91;91.15
8366;BME280;4220;42.502;24.188;2023-08-30T08:14:15;94454.88;;;26.18;89.71
8366;BME280;4220;42.502;24.188;2023-08-30T08:16:42;94451.84;;;26.32;88.64
8366;BME280;4220;42.502;24.188;2023-08-30T08:19:10;94468.81;;;26.61;88.56
8366;BME280;4220;42.502;24.188;2023-08-30T08:21:38;94462.09;;;26.80;87.95
8366;BME280;4220;42.502;24.188;2023-08-30T08:24:05;94460.84;;;26.89;86.13
8366;BME280;4220;42.502;24.188;2023-08-30T08:26:32;94456.66;;;27.04;86.39
8366;BME280;4220;42.502;24.188;2023-08-30T08:28:59;94464.16;;;27.19;85.45
8366;BME280;4220;42.502;24.188;2023-08-30T08:31:25;94458.25;;;27.17;84.07
8366;BME280;4220;42.502;24.188;2023-08-30T08:34:07;94451.22;;;27.16;85.23
8366;BME280;4220;42.502;24.188;2023-08-30T08:36:36;94448.38;;;27.00;86.20
8366;BME280;4220;42.502;24.188;2023-08-30T08:39:04;94441.94;;;26.93;86.02
8366;BME280;4220;42.502;24.188;2023-08-30T08:41:40;94442.69;;;27.05;86.22
8366;BME280;4220;42.502;24.188;2023-08-30T08:44:08;94438.63;;;26.99;86.08
8366;BME280;4220;42.502;24.188;2023-08-30T08:46:36;94449.28;;;27.29;84.44
8366;BME280;4220;42.502;24.188;2023-08-30T08:49:08;94450.78;;;27.38;83.53
8366;BME280;4220;42.502;24.188;2023-08-30T08:51:37;94440.78;;;27.42;82.25
8366;BME280;4220;42.502;24.188;2023-08-30T08:54:05;94439.50;;;27.64;83.06
8366;BME280;4220;42.502;24.188;2023-08-30T08:56:32;94438.03;;;27.94;82.99
8366;BME280;4220;42.502;24.188;2023-08-30T08:58:59;94444.41;;;28.10;81.38
8366;BME280;4220;42.502;24.188;2023-08-30T09:01:27;94454.00;;;28.20;80.52
8366;BME280;4220;42.502;24.188;2023-08-30T09:03:54;94440.63;;;28.15;79.55
8366;BME280;4220;42.502;24.188;2023-08-30T09:06:21;94435.00;;;27.96;80.65
8366;BME280;4220;42.502;24.188;2023-08-30T09:08:50;94448.25;;;27.97;80.11
8366;BME280;4220;42.502;24.188;2023-08-30T09:11:16;94432.47;;;27.63;80.85
8366;BME280;4220;42.502;24.188;2023-08-30T09:13:44;94438.44;;;27.80;80.17
8366;BME280;4220;42.502;24.188;2023-08-30T09:16:14;94435.03;;;27.83;80.12
8366;BME280;4220;42.502;24.188;2023-08-30T09:18:41;94435.22;;;27.91;79.82
8366;BME280;4220;42.502;24.188;2023-08-30T09:21:08;94427.47;;;28.05;78.84
8366;BME280;4220;42.502;24.188;2023-08-30T09:23:35;94426.75;;;28.20;78.25
8366;BME280;4220;42.502;24.188;2023-08-30T09:26:04;94411.19;;;28.36;77.67
8366;BME280;4220;42.502;24.188;2023-08-30T09:28:31;94426.31;;;28.61;77.09
8366;BME280;4220;42.502;24.188;2023-08-30T09:31:07;94425.81;;;28.87;76.32
8366;BME280;4220;42.502;24.188;2023-08-30T09:33:45;94419.19;;;29.03;75.47
8366;BME280;4220;42.502;24.188;2023-08-30T09:36:13;94424.03;;;29.26;74.53
8366;BME280;4220;42.502;24.188;2023-08-30T09:38:40;94429.81;;;29.40;73.58
8366;BME280;4220;42.502;24.188;2023-08-30T09:41:09;94415.66;;;29.34;73.68
8366;BME280;4220;42.502;24.188;2023-08-30T09:43:42;94420.44;;;29.56;73.38
8366;BME280;4220;42.502;24.188;2023-08-30T09:46:08;94425.25;;;29.78;72.54
8366;BME280;4220;42.502;24.188;2023-08-30T09:48:37;94431.09;;;29.96;71.76
8366;BME280;4220;42.502;24.188;2023-08-30T09:51:06;94424.41;;;30.13;70.30
8366;BME280;4220;42.502;24.188;2023-08-30T09:53:41;94422.56;;;30.36;69.16
8366;BME280;4220;42.502;24.188;2023-08-30T09:56:12;94423.72;;;30.58;68.78
8366;BME280;4220;42.502;24.188;2023-08-30T09:58:40;94426.41;;;30.77;67.69
8366;BME280;4220;42.502;24.188;2023-08-30T10:01:08;94420.06;;;30.50;67.85
8366;BME280;4220;42.502;24.188;2023-08-30T10:03:35;94421.75;;;30.16;68.95
8366;BME280;4220;42.502;24.188;2023-08-30T10:06:02;94410.16;;;30.04;69.35
8366;BME280;4220;42.502;24.188;2023-08-30T10:08:32;94415.41;;;30.12;68.76
8366;BME280;4220;42.502;24.188;2023-08-30T10:11:02;94427.00;;;29.87;68.79
8366;BME280;4220;42.502;24.188;2023-08-30T10:13:31;94417.00;;;29.94;69.13
8366;BME280;4220;42.502;24.188;2023-08-30T10:16:01;94424.91;;;29.99;68.92
8366;BME280;4220;42.502;24.188;2023-08-30T10:18:32;94394.97;;;29.87;68.61
8366;BME280;4220;42.502;24.188;2023-08-30T10:21:02;94414.09;;;30.45;68.03
8366;BME280;4220;42.502;24.188;2023-08-30T10:23:34;94407.75;;;30.82;66.06
8366;BME280;4220;42.502;24.188;2023-08-30T10:26:03;94403.72;;;31.22;64.90
8366;BME280;4220;42.502;24.188;2023-08-30T10:28:34;94411.38;;;31.61;63.75
8366;BME280;4220;42.502;24.188;2023-08-30T10:31:02;94396.94;;;31.64;62.48
8366;BME280;4220;42.502;24.188;2023-08-30T10:33:30;94405.41;;;31.52;61.20
8366;BME280;4220;42.502;24.188;2023-08-30T10:36:05;94405.75;;;31.02;62.82
8366;BME280;4220;42.502;24.188;2023-08-30T10:38:32;94393.00;;;30.45;63.74
8366;BME280;4220;42.502;24.188;2023-08-30T10:41:06;94391.66;;;30.16;65.58
8366;BME280;4220;42.502;24.188;2023-08-30T10:43:35;94394.47;;;30.62;64.78
8366;BME280;4220;42.502;24.188;2023-08-30T10:46:04;94397.81;;;31.20;62.14
8366;BME280;4220;42.502;24.188;2023-08-30T10:48:36;94398.25;;;31.74;60.72
8366;BME280;4220;42.502;24.188;2023-08-30T10:51:03;94354.03;;;32.09;59.83
8366;BME280;4220;42.502;24.188;2023-08-30T10:53:31;94393.56;;;32.74;58.92
8366;BME280;4220;42.502;24.188;2023-08-30T10:56:10;94394.28;;;33.08;56.68
8366;BME280;4220;42.502;24.188;2023-08-30T10:58:44;94398.41;;;33.32;54.46
8366;BME280;4220;42.502;24.188;2023-08-30T11:01:11;94394.88;;;32.91;54.52
8366;BME280;4220;42.502;24.188;2023-08-30T11:03:40;94393.41;;;33.01;54.79
8366;BME280;4220;42.502;24.188;2023-08-30T11:06:13;94375.97;;;33.30;54.29
8366;BME280;4220;42.502;24.188;2023-08-30T11:08:41;94372.88;;;33.31;53.50
8366;BME280;4220;42.502;24.188;2023-08-30T11:11:10;94384.31;;;33.40;52.65
8366;BME280;4220;42.502;24.188;2023-08-30T11:13:39;94374.94;;;33.48;53.48
8366;BME280;4220;42.502;24.188;2023-08-30T11:16:07;94380.56;;;33.66;52.28
8366;BME280;4220;42.502;24.188;2023-08-30T11:18:37;94386.22;;;33.94;52.19
8366;BME280;4220;42.502;24.188;2023-08-30T11:21:05;94384.00;;;34.17;51.21
8366;BME280;4220;42.502;24.188;2023-08-30T11:23:33;94385.56;;;34.26;50.48
8366;BME280;4220;42.502;24.188;2023-08-30T11:26:00;94379.75;;;34.45;49.16
8366;BME280;4220;42.502;24.188;2023-08-30T11:28:29;94380.97;;;34.65;49.22
8366;BME280;4220;42.502;24.188;2023-08-30T11:30:56;94374.72;;;35.00;49.04
8366;BME280;4220;42.502;24.188;2023-08-30T11:33:24;94377.09;;;35.19;47.71
8366;BME280;4220;42.502;24.188;2023-08-30T11:35:51;94363.72;;;34.96;47.01
8366;BME280;4220;42.502;24.188;2023-08-30T11:38:19;94370.34;;;33.67;50.12
8366;BME280;4220;42.502;24.188;2023-08-30T11:40:49;94362.44;;;32.26;52.73
8366;BME280;4220;42.502;24.188;2023-08-30T11:43:17;94369.91;;;31.37;55.87
8366;BME280;4220;42.502;24.188;2023-08-30T11:45:43;94357.03;;;31.15;56.57
8366;BME280;4220;42.502;24.188;2023-08-30T11:48:11;94363.53;;;31.03;57.11
8366;BME280;4220;42.502;24.188;2023-08-30T11:50:40;94355.09;;;31.15;56.07
8366;BME280;4220;42.502;24.188;2023-08-30T11:53:09;94354.94;;;31.04;56.42
8366;BME280;4220;42.502;24.188;2023-08-30T11:55:37;94360.78;;;30.80;56.54
8366;BME280;4220;42.502;24.188;2023-08-30T11:58:04;94342.72;;;31.25;55.91
8366;BME280;4220;42.502;24.188;2023-08-30T12:00:33;94343.84;;;32.09;53.28
8366;BME280;4220;42.502;24.188;2023-08-30T12:03:01;94329.75;;;32.48;52.16
8366;BME280;4220;42.502;24.188;2023-08-30T12:05:28;94337.84;;;32.34;52.77
8366;BME280;4220;42.502;24.188;2023-08-30T12:08:00;94356.88;;;31.86;52.72
8366;BME280;4220;42.502;24.188;2023-08-30T12:10:28;94350.44;;;31.72;53.28
8366;BME280;4220;42.502;24.188;2023-08-30T12:12:57;94342.50;;;31.96;53.06
8366;BME280;4220;42.502;24.188;2023-08-30T12:15:24;94346.63;;;32.13;52.62
8366;BME280;4220;42.502;24.188;2023-08-30T12:17:54;94327.00;;;31.78;53.07
8366;BME280;4220;42.502;24.188;2023-08-30T12:20:20;94338.19;;;31.65;53.71
8366;BME280;4220;42.502;24.188;2023-08-30T12:22:49;94353.06;;;31.38;54.29
8366;BME280;4220;42.502;24.188;2023-08-30T12:25:19;94343.19;;;31.04;55.34
8366;BME280;4220;42.502;24.188;2023-08-30T12:27:46;94330.97;;;30.75;56.76
8366;BME280;4220;42.502;24.188;2023-08-30T12:30:13;94291.31;;;30.66;56.98
8366;BME280;4220;42.502;24.188;2023-08-30T12:32:42;94323.16;;;31.26;55.84
8366;BME280;4220;42.502;24.188;2023-08-30T12:35:09;94329.78;;;31.81;54.15
8366;BME280;4220;42.502;24.188;2023-08-30T12:37:36;94335.44;;;31.65;53.77
8366;BME280;4220;42.502;24.188;2023-08-30T12:40:03;94317.22;;;31.47;53.72
8366;BME280;4220;42.502;24.188;2023-08-30T12:42:35;94323.41;;;31.74;53.78
8366;BME280;4220;42.502;24.188;2023-08-30T12:45:03;94315.88;;;32.34;51.81
8366;BME280;4220;42.502;24.188;2023-08-30T12:47:30;94322.47;;;33.13;50.25
8366;BME280;4220;42.502;24.188;2023-08-30T12:49:56;94316.88;;;33.57;49.33
8366;BME280;4220;42.502;24.188;2023-08-30T12:52:23;94313.84;;;33.80;48.24
8366;BME280;4220;42.502;24.188;2023-08-30T12:54:50;94318.00;;;34.49;47.60
8366;BME280;4220;42.502;24.188;2023-08-30T12:57:19;94312.53;;;35.09;46.66
8366;BME280;4220;42.502;24.188;2023-08-30T12:59:47;94300.69;;;34.77;45.03
8366;BME280;4220;42.502;24.188;2023-08-30T13:02:14;94317.44;;;33.94;47.07
8366;BME280;4220;42.502;24.188;2023-08-30T13:04:41;94310.84;;;34.16;46.85
8366;BME280;4220;42.502;24.188;2023-08-30T13:07:08;94298.06;;;33.70;46.53
8366;BME280;4220;42.502;24.188;2023-08-30T13:09:34;94305.03;;;33.53;47.75